Mount Berry, GA (30149)

12:35 AM EDT on July 29, 2016 (GMT -0400)
Oak Hill & The Martha Berry Museum | | Change Station

Elev 643 ft 34.28 °N, 85.18 °W | Updated 12 minutes ago

Clear
Clear
74.5 °F
Feels Like 72 °F
N
0.0
Wind Variable Wind from North

Today
High -- | Low -- °F
--% Chance of Precip.
Yesterday
High -- | Low -- °F
Precip. -- in
Pressure 29.96 in
Visibility 10.0 miles
Clouds Clear
Heat Index 72 °F
Dew Point 73 °F
Humidity 95%
Rainfall 0.00 in
Snow Depth Not available.
6:49 AM 8:44 PM
Waning Crescent, 25% visible
METAR KRMG 290353Z AUTO 22003KT 10SM CLR 24/22 A2999 RMK AO2 SLP146 T02390217
Pressure 29.96 in
Visibility 10.0 miles
Clouds Clear
Heat Index 72 °F
Dew Point 73 °F
Humidity 95%
Rainfall 0.00 in
Snow Depth Not available.
6:49 AM 8:44 PM
Waning Crescent, 25% visible
METAR KRMG 290353Z AUTO 22003KT 10SM CLR 24/22 A2999 RMK AO2 SLP146 T02390217

10-Day Weather Forecast

Almanac

Astronomy

Jul. 29, 2016 Rise Set
Actual Time
Civil Twilight
Nautical Twilight
Astronomical Twilight
Moon
Length of Visible Light
Length of Day
Tomorrow will be .
, % of the Moon is Illuminated

Today's Extremes

State Highs State Lows

Community

WunderPhotos

Upload Photos

1,928,294 photos uploaded!

WunderBlog® & News

Nearby

Air Quality

  Air Quality AQ Index Pollutant
Not available.

Snow Depth

Station Depth Elevation

Earthquake Activity

City Distance Mag. Time & Date
Minimum magnitude displayed is 2.5.

Coastal Water Temperatures

Place Temperature

Stations

Nearby Weather Stations

Station Location Temp. Windchill Dew Point Humidity Wind Precip. Elev Updated Type
                   

Watches & Warnings

There are currently no watches in effect.